aviador You're here:

KNUI Decoded Metar

WEBSTER NAVAL in MD, USA
Report Time2018-01-19 18:53:00
UTC Time2018-01-19 19:09:51
Flight Rules vfr VFR
Wind210° at 03 kt
W.Decomp.*RWY 26: 2.3 kt HW 1.9 kt LCW
RWY 15: 1.0 kt HW 2.8 kt RCW
W.Rank210° ranks 3
Current wind is below 210° avg. (7.7)
Visibility9999 m
Phenomena:N/A
Clouds:N/A
Expected CloudBase > 6,800 ft AGL from Temp-Dew spread
CeilingNone
Temp08°C (ISA -7)
Dew Point-9°C (29% RH)
AAT3.9°C
QNH1018 hPa
Density Alt-935 ft
Elevation23 ft
Report Wrong Elevation
Raw Report
METAR KNUI 191853Z AUTO 21003KT 10SM CLR 08/M09 A3007 RMK AO2 SLP182
T00831094=

Extra information for KNUI:More info

Metar Taf Metar & Taf Last 4 Metars F.Rules Stats Wind Profile Meteogram Temp Stats Airport Information Weather charts Add Link Nearby VenuesMetar ALERT Operation Metar Decoded Social comments

AIRNAV info for KNUI